createdAt,value
2019-03-15T00:00:35.953Z,2.73
2019-03-15T00:01:42.407Z,2.53
2019-03-15T00:02:46.881Z,3.30
2019-03-15T00:03:51.391Z,2.60
2019-03-15T00:04:56.091Z,2.97
2019-03-15T00:06:00.487Z,2.67
2019-03-15T00:07:04.955Z,3.20
2019-03-15T00:08:09.833Z,3.53
2019-03-15T00:09:14.189Z,3.67
2019-03-15T00:10:21.148Z,3.30
2019-03-15T00:11:25.473Z,4.00
2019-03-15T00:12:30.494Z,3.30
2019-03-15T00:13:34.912Z,2.77
2019-03-15T00:14:39.286Z,3.77
2019-03-15T00:15:43.640Z,3.00
2019-03-15T00:16:48.018Z,3.43
2019-03-15T00:17:52.410Z,2.80
2019-03-15T00:18:56.869Z,3.23
2019-03-15T00:20:01.284Z,2.83
2019-03-15T00:21:06.046Z,3.10
2019-03-15T00:22:10.419Z,3.67
2019-03-15T00:23:14.828Z,2.70
2019-03-15T00:24:19.312Z,2.70
2019-03-15T00:25:24.478Z,2.60
2019-03-15T00:26:28.861Z,3.07
2019-03-15T00:27:33.356Z,3.30
2019-03-15T00:28:38.035Z,2.83
2019-03-15T00:29:42.566Z,2.90
2019-03-15T00:30:47.065Z,3.27
2019-03-15T00:31:51.438Z,3.43
2019-03-15T00:32:55.890Z,2.73
2019-03-15T00:34:00.303Z,2.73
2019-03-15T00:35:04.905Z,2.97
2019-03-15T00:36:09.360Z,2.60
2019-03-15T00:37:13.795Z,2.93
2019-03-15T00:38:18.316Z,2.93
2019-03-15T00:39:25.776Z,2.83
2019-03-15T00:40:30.206Z,3.47
2019-03-15T00:41:34.546Z,3.40
2019-03-15T00:42:39.045Z,2.67
2019-03-15T00:43:43.377Z,2.73
2019-03-15T00:44:47.872Z,2.60
2019-03-15T00:45:52.243Z,3.43
2019-03-15T00:46:56.633Z,3.63
2019-03-15T00:48:01.043Z,2.27
2019-03-15T00:49:05.584Z,2.80
2019-03-15T00:50:11.703Z,2.70
2019-03-15T00:51:17.231Z,2.90
2019-03-15T00:52:21.665Z,2.80
2019-03-15T00:53:26.077Z,3.00
2019-03-15T00:54:30.489Z,3.30
2019-03-15T00:55:34.883Z,2.93
2019-03-15T00:56:39.330Z,3.10
2019-03-15T00:57:43.731Z,2.83
2019-03-15T00:58:48.223Z,2.40
2019-03-15T00:59:52.631Z,2.60
2019-03-15T01:00:57.048Z,2.27
2019-03-15T01:02:01.565Z,3.53
2019-03-15T01:03:05.963Z,3.30
2019-03-15T01:04:10.394Z,2.40
2019-03-15T01:05:16.375Z,2.93
2019-03-15T01:06:20.813Z,3.37
2019-03-15T01:07:25.183Z,2.70
2019-03-15T01:08:29.706Z,2.40
2019-03-15T01:09:34.124Z,2.27
2019-03-15T01:10:38.779Z,2.50
2019-03-15T01:11:45.544Z,2.50
2019-03-15T01:12:49.340Z,2.83
2019-03-15T01:13:53.849Z,2.37
2019-03-15T01:14:58.283Z,2.23
2019-03-15T01:16:02.643Z,2.90
2019-03-15T01:17:07.177Z,2.53
2019-03-15T01:18:11.578Z,2.93
2019-03-15T01:19:16.079Z,3.43
2019-03-15T01:20:20.464Z,3.03
2019-03-15T01:21:24.951Z,3.50
2019-03-15T01:22:29.415Z,2.07
2019-03-15T01:23:33.777Z,2.17
2019-03-15T01:24:38.513Z,2.50
2019-03-15T01:25:42.819Z,3.30
2019-03-15T01:26:47.288Z,3.40
2019-03-15T01:27:51.693Z,1.97
2019-03-15T01:28:56.105Z,2.53
2019-03-15T01:30:00.622Z,3.03
2019-03-15T01:31:04.959Z,2.50
2019-03-15T01:32:10.064Z,2.70
2019-03-15T01:33:14.458Z,2.67
2019-03-15T01:34:18.879Z,2.80
2019-03-15T01:35:23.882Z,2.50
2019-03-15T01:36:28.337Z,2.80
2019-03-15T01:37:34.774Z,2.43
2019-03-15T01:38:39.340Z,3.33
2019-03-15T01:39:43.871Z,2.30
2019-03-15T01:40:48.973Z,3.07
2019-03-15T01:41:53.519Z,2.70
2019-03-15T01:42:57.860Z,2.30
2019-03-15T01:44:03.496Z,2.30
2019-03-15T01:45:08.247Z,2.30
2019-03-15T01:46:12.607Z,2.43
2019-03-15T01:47:17.037Z,3.10
2019-03-15T01:48:21.607Z,2.97
2019-03-15T01:49:26.038Z,2.67
2019-03-15T01:50:30.389Z,2.97
2019-03-15T01:51:34.833Z,2.50
2019-03-15T01:52:39.219Z,3.13
2019-03-15T01:53:43.600Z,3.33
2019-03-15T01:54:47.959Z,2.77
2019-03-15T01:55:52.612Z,3.00
2019-03-15T01:56:57.063Z,2.50
2019-03-15T01:58:01.411Z,2.17
2019-03-15T01:59:05.761Z,2.20
2019-03-15T02:00:10.688Z,2.23
2019-03-15T02:01:15.134Z,1.90
2019-03-15T02:02:19.516Z,2.27
2019-03-15T02:03:23.917Z,3.00
2019-03-15T02:04:28.681Z,2.57
2019-03-15T02:05:33.040Z,2.60
2019-03-15T02:06:37.476Z,2.30
2019-03-15T02:07:41.899Z,2.10
2019-03-15T02:08:46.262Z,2.47
2019-03-15T02:09:50.783Z,2.70
2019-03-15T02:10:55.337Z,2.27
2019-03-15T02:11:59.796Z,2.70
2019-03-15T02:13:04.253Z,2.73
2019-03-15T02:14:08.706Z,2.80
2019-03-15T02:15:13.089Z,2.37
2019-03-15T02:16:17.502Z,1.90
2019-03-15T02:17:22.153Z,2.10
2019-03-15T02:18:27.038Z,2.30
2019-03-15T02:19:31.512Z,2.47
2019-03-15T02:20:35.961Z,2.10
2019-03-15T02:21:40.384Z,2.10
2019-03-15T02:22:44.887Z,2.43
2019-03-15T02:23:49.340Z,2.13
2019-03-15T02:24:54.016Z,2.50
2019-03-15T02:25:58.399Z,2.40
2019-03-15T02:27:02.971Z,2.33
2019-03-15T02:28:07.344Z,2.60
2019-03-15T02:29:11.745Z,2.77
2019-03-15T02:30:16.113Z,2.20
2019-03-15T02:31:20.909Z,2.63
2019-03-15T02:32:28.327Z,2.43
2019-03-15T02:33:33.535Z,1.93
2019-03-15T02:34:38.311Z,2.40
2019-03-15T02:35:42.696Z,2.07
2019-03-15T02:36:47.168Z,2.47
2019-03-15T02:37:51.833Z,2.50
2019-03-15T02:38:56.277Z,2.47
2019-03-15T02:40:00.856Z,2.80
2019-03-15T02:41:06.750Z,2.30
2019-03-15T02:42:11.284Z,2.40
2019-03-15T02:43:15.722Z,2.57
2019-03-15T02:44:20.102Z,3.20
2019-03-15T02:45:24.457Z,2.20
2019-03-15T02:46:29.133Z,3.07
2019-03-15T02:47:33.541Z,2.67
2019-03-15T02:48:38.127Z,2.70
2019-03-15T02:49:42.770Z,3.17
2019-03-15T02:50:47.168Z,4.67
2019-03-15T02:51:51.638Z,2.90
2019-03-15T02:52:57.024Z,2.50
2019-03-15T02:54:01.328Z,3.03
2019-03-15T02:55:06.164Z,2.10
2019-03-15T02:56:10.628Z,2.30
2019-03-15T02:57:15.479Z,2.50
2019-03-15T02:58:19.850Z,2.43
2019-03-15T02:59:24.630Z,2.17
2019-03-15T03:00:29.397Z,2.47
2019-03-15T03:01:34.044Z,1.93
2019-03-15T03:02:38.732Z,3.23
2019-03-15T03:03:43.138Z,2.50
2019-03-15T03:04:48.213Z,3.33
2019-03-15T03:05:52.565Z,2.00
2019-03-15T03:06:56.963Z,3.23
2019-03-15T03:08:01.325Z,2.80
2019-03-15T03:09:07.897Z,2.70
2019-03-15T03:10:12.614Z,2.43
2019-03-15T03:11:17.023Z,2.57
2019-03-15T03:12:21.411Z,2.40
2019-03-15T03:13:25.829Z,2.23
2019-03-15T03:14:30.941Z,2.60
2019-03-15T03:15:35.437Z,2.60
2019-03-15T03:16:39.804Z,2.67
2019-03-15T03:17:44.218Z,2.87
2019-03-15T03:18:48.751Z,2.60
2019-03-15T03:19:54.102Z,2.70
2019-03-15T03:20:58.644Z,2.60
2019-03-15T03:22:03.018Z,2.37
2019-03-15T03:23:07.415Z,4.20
2019-03-15T03:24:11.816Z,3.03
2019-03-15T03:25:17.228Z,2.80
2019-03-15T03:26:22.036Z,2.33
2019-03-15T03:27:26.541Z,2.70
2019-03-15T03:28:30.846Z,2.43
2019-03-15T03:29:36.085Z,2.10
2019-03-15T03:30:40.593Z,2.60
2019-03-15T03:31:46.013Z,3.23
2019-03-15T03:32:50.601Z,2.40
2019-03-15T03:33:55.204Z,2.03
2019-03-15T03:34:59.532Z,2.93
2019-03-15T03:36:04.030Z,2.53
2019-03-15T03:37:08.434Z,2.47
2019-03-15T03:38:12.793Z,2.30
2019-03-15T03:39:17.229Z,2.27
2019-03-15T03:40:21.694Z,2.83
2019-03-15T03:41:26.148Z,2.10
2019-03-15T03:42:31.007Z,2.07
2019-03-15T03:43:35.400Z,2.60
2019-03-15T03:44:39.842Z,2.30
2019-03-15T03:45:44.367Z,3.40
2019-03-15T03:46:48.687Z,2.53
2019-03-15T03:47:53.350Z,2.07
2019-03-15T03:48:57.908Z,2.50
2019-03-15T03:50:02.386Z,2.43
2019-03-15T03:51:06.749Z,2.43
2019-03-15T03:52:11.187Z,2.10
2019-03-15T03:53:15.614Z,2.63
2019-03-15T03:54:20.022Z,2.20
2019-03-15T03:55:25.546Z,2.53
2019-03-15T03:56:30.360Z,2.43
2019-03-15T03:57:34.703Z,2.37
2019-03-15T03:58:39.391Z,2.63
2019-03-15T03:59:43.785Z,2.53
2019-03-15T04:00:48.308Z,1.97
2019-03-15T04:01:52.735Z,3.13
2019-03-15T04:02:57.898Z,2.10
2019-03-15T04:04:02.303Z,2.50
2019-03-15T04:05:06.752Z,2.63
2019-03-15T04:06:11.544Z,2.57
2019-03-15T04:07:16.072Z,2.30
2019-03-15T04:08:20.484Z,2.23
2019-03-15T04:09:24.793Z,2.50
2019-03-15T04:10:32.525Z,2.87
2019-03-15T04:11:37.045Z,3.03
2019-03-15T04:12:41.384Z,2.97
2019-03-15T04:13:45.806Z,2.77
2019-03-15T04:14:50.212Z,2.57
2019-03-15T04:15:57.397Z,2.73
2019-03-15T04:17:01.756Z,2.37
2019-03-15T04:18:06.771Z,1.97
2019-03-15T04:19:11.278Z,2.20
2019-03-15T04:20:16.221Z,2.70
2019-03-15T04:21:20.557Z,2.40
2019-03-15T04:22:25.031Z,2.50
2019-03-15T04:23:29.385Z,2.30
2019-03-15T04:24:33.728Z,2.57
2019-03-15T04:25:40.449Z,1.93
2019-03-15T04:26:44.239Z,2.33
2019-03-15T04:27:48.587Z,2.63
2019-03-15T04:28:52.980Z,2.30
2019-03-15T04:29:57.423Z,2.70
2019-03-15T04:31:01.776Z,2.30
2019-03-15T04:32:06.199Z,2.00
2019-03-15T04:33:10.767Z,2.40
2019-03-15T04:34:15.217Z,2.23
2019-03-15T04:35:19.557Z,1.93
2019-03-15T04:36:24.004Z,2.00
2019-03-15T04:37:28.411Z,2.10
2019-03-15T04:38:32.847Z,2.70
2019-03-15T04:39:37.295Z,1.93
2019-03-15T04:40:41.705Z,2.37
2019-03-15T04:41:46.145Z,2.20
2019-03-15T04:42:50.556Z,2.07
2019-03-15T04:43:55.284Z,2.40
2019-03-15T04:44:59.655Z,2.47
2019-03-15T04:46:03.999Z,2.53
2019-03-15T04:47:08.350Z,2.50
2019-03-15T04:48:12.809Z,2.23
2019-03-15T04:49:17.306Z,2.70
2019-03-15T04:50:21.646Z,2.37
2019-03-15T04:51:26.070Z,2.73
2019-03-15T04:52:30.580Z,2.40
2019-03-15T04:53:34.920Z,2.40
2019-03-15T04:54:39.378Z,2.33
2019-03-15T04:55:43.732Z,2.67
2019-03-15T04:56:48.060Z,2.83
2019-03-15T04:57:52.492Z,3.17
2019-03-15T04:58:56.911Z,2.17
2019-03-15T05:00:01.312Z,2.30
2019-03-15T05:01:05.777Z,2.10
2019-03-15T05:02:10.209Z,2.40
2019-03-15T05:03:14.639Z,2.20
2019-03-15T05:04:19.096Z,2.07
2019-03-15T05:05:23.509Z,2.73
2019-03-15T05:06:27.900Z,1.70
2019-03-15T05:07:32.238Z,2.87
2019-03-15T05:08:36.671Z,2.47
2019-03-15T05:09:41.029Z,2.93
2019-03-15T05:10:45.390Z,2.90
2019-03-15T05:11:49.795Z,3.10
2019-03-15T05:12:54.156Z,2.30
2019-03-15T05:13:59.233Z,2.57
2019-03-15T05:15:03.767Z,2.43
2019-03-15T05:16:08.246Z,2.63
2019-03-15T05:17:12.794Z,2.40
2019-03-15T05:18:18.095Z,2.70
2019-03-15T05:19:22.420Z,2.33
2019-03-15T05:20:26.888Z,2.57
2019-03-15T05:21:31.290Z,2.53
2019-03-15T05:22:35.792Z,2.73
2019-03-15T05:23:40.172Z,2.60
2019-03-15T05:24:44.536Z,3.10
2019-03-15T05:25:48.979Z,2.70
2019-03-15T05:26:53.343Z,2.97
2019-03-15T05:27:57.861Z,3.00
2019-03-15T05:29:02.248Z,3.10
2019-03-15T05:30:06.879Z,2.40
2019-03-15T05:31:11.340Z,3.50
2019-03-15T05:32:17.260Z,2.77
2019-03-15T05:33:21.699Z,3.37
2019-03-15T05:34:26.076Z,3.13
2019-03-15T05:35:30.484Z,3.03
2019-03-15T05:36:34.837Z,4.03
2019-03-15T05:37:39.166Z,3.50
2019-03-15T05:38:43.581Z,3.03
2019-03-15T05:39:47.919Z,2.43
2019-03-15T05:40:52.888Z,3.17
2019-03-15T05:41:57.649Z,3.60
2019-03-15T05:43:02.071Z,2.87
2019-03-15T05:44:06.461Z,3.33
2019-03-15T05:45:10.979Z,3.40
2019-03-15T05:46:15.923Z,3.03
2019-03-15T05:47:20.376Z,3.47
2019-03-15T05:48:24.823Z,3.53
2019-03-15T05:49:29.196Z,3.60
2019-03-15T05:50:33.799Z,3.37
2019-03-15T05:51:38.178Z,3.60
2019-03-15T05:52:42.569Z,3.17
2019-03-15T05:53:47.020Z,2.83
2019-03-15T05:54:51.412Z,3.37
2019-03-15T05:55:56.018Z,2.80
2019-03-15T05:57:00.438Z,3.73
2019-03-15T05:58:04.855Z,3.30
2019-03-15T05:59:09.228Z,3.60
2019-03-15T06:00:13.938Z,3.50
2019-03-15T06:01:18.348Z,3.70
2019-03-15T06:02:22.833Z,3.43
2019-03-15T06:03:27.152Z,3.77
2019-03-15T06:04:34.342Z,3.33
2019-03-15T06:05:38.755Z,3.10
2019-03-15T06:06:43.164Z,3.00
2019-03-15T06:07:47.652Z,3.13
2019-03-15T06:08:52.053Z,3.27
2019-03-15T06:09:57.859Z,3.73
2019-03-15T06:11:02.271Z,3.67
2019-03-15T06:12:06.630Z,3.73
2019-03-15T06:13:11.065Z,3.30
2019-03-15T06:14:15.824Z,3.53
2019-03-15T06:15:20.323Z,3.53
2019-03-15T06:16:24.710Z,3.73
2019-03-15T06:17:29.096Z,3.33
2019-03-15T06:18:34.844Z,3.73
2019-03-15T06:19:39.288Z,4.67
2019-03-15T06:20:43.671Z,3.90
2019-03-15T06:21:48.210Z,3.43
2019-03-15T06:22:52.582Z,4.10
2019-03-15T06:23:57.585Z,3.57
2019-03-15T06:25:01.960Z,4.17
2019-03-15T06:26:06.357Z,4.73
2019-03-15T06:27:10.790Z,4.13
2019-03-15T06:28:16.436Z,4.07
2019-03-15T06:29:20.999Z,4.17
2019-03-15T06:30:25.372Z,4.57
2019-03-15T06:31:29.810Z,3.93
2019-03-15T06:32:34.774Z,3.90
2019-03-15T06:33:39.237Z,3.83
2019-03-15T06:34:43.591Z,3.53
2019-03-15T06:35:47.975Z,4.83
2019-03-15T06:36:52.382Z,3.70
2019-03-15T06:37:56.826Z,3.57
2019-03-15T06:39:01.244Z,4.80
2019-03-15T06:40:05.903Z,3.73
2019-03-15T06:41:10.467Z,4.20
2019-03-15T06:42:15.017Z,4.47
2019-03-15T06:43:19.433Z,4.33
2019-03-15T06:44:23.768Z,4.03
2019-03-15T06:45:28.152Z,4.50
2019-03-15T06:46:34.873Z,4.77
2019-03-15T06:47:39.314Z,4.90
2019-03-15T06:48:44.978Z,4.20
2019-03-15T06:49:49.818Z,5.20
2019-03-15T06:50:57.250Z,5.07
2019-03-15T06:52:01.795Z,3.77
2019-03-15T06:53:06.140Z,5.20
2019-03-15T06:54:11.744Z,4.23
2019-03-15T06:55:16.542Z,5.20
2019-03-15T06:56:23.265Z,4.10
2019-03-15T06:57:27.669Z,4.50
2019-03-15T06:58:32.034Z,4.93
2019-03-15T06:59:37.251Z,4.30
2019-03-15T07:00:41.657Z,5.23
2019-03-15T07:01:46.131Z,4.83
2019-03-15T07:02:50.616Z,4.63
2019-03-15T07:03:55.015Z,4.50
2019-03-15T07:04:59.489Z,4.77
2019-03-15T07:06:03.918Z,4.80
2019-03-15T07:07:08.265Z,5.37
2019-03-15T07:08:12.943Z,4.37
2019-03-15T07:09:17.627Z,4.23
2019-03-15T07:10:21.960Z,4.37
2019-03-15T07:11:26.447Z,5.20
2019-03-15T07:12:30.822Z,4.13
2019-03-15T07:13:35.245Z,4.20
2019-03-15T07:14:39.733Z,4.53
2019-03-15T07:15:44.558Z,4.47
2019-03-15T07:16:49.082Z,4.77
2019-03-15T07:17:53.424Z,4.40
2019-03-15T07:18:57.952Z,3.47
2019-03-15T07:20:02.493Z,4.80
2019-03-15T07:21:06.853Z,4.57
2019-03-15T07:22:11.246Z,4.40
2019-03-15T07:23:16.030Z,4.33
2019-03-15T07:24:25.549Z,4.37
2019-03-15T07:25:29.613Z,3.80
2019-03-15T07:26:33.996Z,3.83
2019-03-15T07:27:42.030Z,5.13
2019-03-15T07:28:44.763Z,3.87
2019-03-15T07:29:49.170Z,4.63
2019-03-15T07:30:53.529Z,3.87
2019-03-15T07:31:58.793Z,4.93
2019-03-15T07:33:03.208Z,4.00
2019-03-15T07:34:07.573Z,4.33
2019-03-15T07:35:12.031Z,4.47
2019-03-15T07:36:16.689Z,3.90
2019-03-15T07:37:21.607Z,4.37
2019-03-15T07:38:26.177Z,4.50
2019-03-15T07:39:30.604Z,4.53
2019-03-15T07:40:35.348Z,4.60
2019-03-15T07:41:40.009Z,4.40
2019-03-15T07:42:44.415Z,3.50
2019-03-15T07:43:48.861Z,4.00
2019-03-15T07:44:53.417Z,4.00
2019-03-15T07:45:58.564Z,3.97
2019-03-15T07:47:03.249Z,3.97
2019-03-15T07:48:17.355Z,3.53
2019-03-15T07:49:13.752Z,3.67
2019-03-15T07:50:18.513Z,4.27
2019-03-15T07:51:22.900Z,4.20
2019-03-15T07:52:27.280Z,4.70
2019-03-15T07:53:31.678Z,4.77
2019-03-15T07:54:38.343Z,4.23
2019-03-15T07:55:43.024Z,4.57
2019-03-15T07:56:47.441Z,5.00
2019-03-15T07:57:51.860Z,4.20
2019-03-15T07:58:56.229Z,3.93
2019-03-15T08:00:01.162Z,4.63
2019-03-15T08:01:06.008Z,4.43
2019-03-15T08:02:10.453Z,4.20
2019-03-15T08:03:14.874Z,4.13
2019-03-15T08:04:22.084Z,4.45
2019-03-15T08:05:26.423Z,4.43
2019-03-15T08:06:35.109Z,5.23
2019-03-15T08:07:44.335Z,4.90
2019-03-15T08:08:43.353Z,5.17
2019-03-15T08:09:50.806Z,5.40
2019-03-15T08:10:55.130Z,4.87
2019-03-15T08:11:59.854Z,5.07
2019-03-15T08:13:04.349Z,5.27
2019-03-15T08:14:08.705Z,4.93
2019-03-15T08:15:13.221Z,5.60
2019-03-15T08:16:19.212Z,5.37
2019-03-15T08:17:23.565Z,5.10
2019-03-15T08:18:27.974Z,6.17
2019-03-15T08:19:32.360Z,5.13
2019-03-15T08:20:36.758Z,5.60
2019-03-15T08:21:41.121Z,4.93
2019-03-15T08:22:45.677Z,5.63
2019-03-15T08:23:50.038Z,4.93
2019-03-15T08:24:54.637Z,5.40
2019-03-15T08:25:59.184Z,5.20
2019-03-15T08:27:05.148Z,5.90
2019-03-15T08:28:09.533Z,5.30
2019-03-15T08:29:14.285Z,5.90
2019-03-15T08:30:18.840Z,5.13
2019-03-15T08:31:23.584Z,5.22
2019-03-15T08:32:27.977Z,5.40
2019-03-15T08:33:32.334Z,5.53
2019-03-15T08:34:36.742Z,5.23
2019-03-15T08:35:41.077Z,5.93
2019-03-15T08:36:45.456Z,6.30
2019-03-15T08:37:49.830Z,5.77
2019-03-15T08:38:54.149Z,7.63
2019-03-15T08:39:58.921Z,6.77
2019-03-15T08:41:03.608Z,7.30
2019-03-15T08:42:08.098Z,6.90
2019-03-15T08:43:12.603Z,7.23
2019-03-15T08:44:17.057Z,6.50
2019-03-15T08:45:21.552Z,6.07
2019-03-15T08:46:25.938Z,7.13
2019-03-15T08:47:30.353Z,6.57
2019-03-15T08:48:34.763Z,7.15
2019-03-15T08:49:39.075Z,6.20
2019-03-15T08:50:43.635Z,6.87
2019-03-15T08:51:48.008Z,6.80
2019-03-15T08:52:54.095Z,5.70
2019-03-15T08:53:58.737Z,7.20
2019-03-15T08:55:05.622Z,6.83
2019-03-15T08:56:09.296Z,6.53
2019-03-15T08:57:14.057Z,7.00
2019-03-15T08:58:22.162Z,5.33
2019-03-15T08:59:25.531Z,6.00
2019-03-15T09:00:29.960Z,5.53
2019-03-15T09:01:34.282Z,5.10
2019-03-15T09:02:38.729Z,5.50
2019-03-15T09:03:43.272Z,5.57
2019-03-15T09:04:50.333Z,5.03
2019-03-15T09:05:53.805Z,5.10
2019-03-15T09:06:58.335Z,5.63
2019-03-15T09:08:02.689Z,5.93
2019-03-15T09:09:08.733Z,5.30
2019-03-15T09:10:22.751Z,5.80
2019-03-15T09:11:19.454Z,5.20
2019-03-15T09:12:23.923Z,5.37
2019-03-15T09:13:28.286Z,6.03
2019-03-15T09:14:32.674Z,5.10
2019-03-15T09:15:37.096Z,5.53
2019-03-15T09:16:41.622Z,5.93
2019-03-15T09:17:46.001Z,5.65
2019-03-15T09:18:50.617Z,5.97
2019-03-15T09:19:55.169Z,5.50
2019-03-15T09:20:59.595Z,6.50
2019-03-15T09:22:04.001Z,6.20
2019-03-15T09:23:08.356Z,6.17
2019-03-15T09:24:12.893Z,5.77
2019-03-15T09:25:20.263Z,4.93
2019-03-15T09:26:23.310Z,5.90
2019-03-15T09:27:27.676Z,6.03
2019-03-15T09:28:32.095Z,6.33
2019-03-15T09:29:36.592Z,5.60
2019-03-15T09:30:43.674Z,5.97
2019-03-15T09:31:48.592Z,5.90
2019-03-15T09:32:53.109Z,6.00
2019-03-15T09:33:57.526Z,5.33
2019-03-15T09:35:01.875Z,5.77
2019-03-15T09:36:06.720Z,6.60
2019-03-15T09:37:11.162Z,5.77
2019-03-15T09:38:15.552Z,6.17
2019-03-15T09:39:19.936Z,5.77
2019-03-15T09:40:25.853Z,5.40
2019-03-15T09:41:34.318Z,5.57
2019-03-15T09:42:36.748Z,6.40
2019-03-15T09:43:41.146Z,6.10
2019-03-15T09:44:45.537Z,5.87
2019-03-15T09:45:50.028Z,5.93
2019-03-15T09:46:54.372Z,5.83
2019-03-15T09:47:58.924Z,5.40
2019-03-15T09:49:03.488Z,5.43
2019-03-15T09:50:21.156Z,6.50
2019-03-15T09:51:15.548Z,6.23
2019-03-15T09:52:22.012Z,5.90
2019-03-15T09:53:26.449Z,5.40
2019-03-15T09:54:30.827Z,4.73
2019-03-15T09:55:35.205Z,5.00
2019-03-15T09:56:41.604Z,5.80
2019-03-15T09:57:45.715Z,5.50
2019-03-15T09:58:50.185Z,5.87
2019-03-15T09:59:54.702Z,5.27
2019-03-15T10:00:59.957Z,6.03
2019-03-15T10:02:07.708Z,5.30
2019-03-15T10:03:21.664Z,5.93
2019-03-15T10:04:17.284Z,5.60
2019-03-15T10:05:21.878Z,6.37
2019-03-15T10:06:26.380Z,6.17
2019-03-15T10:07:38.290Z,5.93
2019-03-15T10:08:36.885Z,6.25
2019-03-15T10:09:46.145Z,6.27
2019-03-15T10:10:49.230Z,6.12
2019-03-15T10:11:56.454Z,5.65
2019-03-15T10:13:05.935Z,5.43
2019-03-15T10:14:06.220Z,5.10
2019-03-15T10:15:11.604Z,4.90
2019-03-15T10:16:16.569Z,5.13
2019-03-15T10:17:23.108Z,4.70
2019-03-15T10:18:27.401Z,4.33
2019-03-15T10:19:31.832Z,4.73
2019-03-15T10:20:36.593Z,4.97
2019-03-15T10:21:41.104Z,4.60
2019-03-15T10:22:45.607Z,3.83
2019-03-15T10:23:50.065Z,4.47
2019-03-15T10:24:54.530Z,4.83
2019-03-15T10:25:58.869Z,4.37
2019-03-15T10:27:04.479Z,4.43
2019-03-15T10:28:09.058Z,4.40
2019-03-15T10:29:15.786Z,4.40
2019-03-15T10:30:22.657Z,4.37
2019-03-15T10:31:27.182Z,4.40
2019-03-15T10:32:31.599Z,4.67
2019-03-15T10:33:35.953Z,4.67
2019-03-15T10:34:40.859Z,4.43
2019-03-15T10:35:45.290Z,4.30
2019-03-15T10:36:49.720Z,4.67
2019-03-15T10:37:54.134Z,4.43
2019-03-15T10:38:58.446Z,4.33
2019-03-15T10:40:03.031Z,4.58
2019-03-15T10:41:07.955Z,4.77
2019-03-15T10:42:12.406Z,4.57
2019-03-15T10:43:16.821Z,4.67
2019-03-15T10:44:24.375Z,4.45
2019-03-15T10:45:28.734Z,4.83
2019-03-15T10:46:33.162Z,5.10
2019-03-15T10:47:37.507Z,4.78
2019-03-15T10:48:45.044Z,5.08
2019-03-15T10:49:49.410Z,4.90
2019-03-15T10:50:53.922Z,4.63
2019-03-15T10:51:58.376Z,4.80
2019-03-15T10:53:02.843Z,5.05
2019-03-15T10:54:07.217Z,4.83
2019-03-15T10:55:11.868Z,5.08
2019-03-15T10:56:16.468Z,4.73
2019-03-15T10:57:20.816Z,5.20
2019-03-15T10:58:25.436Z,4.90
2019-03-15T10:59:29.859Z,4.72
2019-03-15T11:00:34.562Z,4.27
2019-03-15T11:01:39.031Z,4.50
2019-03-15T11:02:43.695Z,4.83
2019-03-15T11:03:48.124Z,4.70
2019-03-15T11:04:52.626Z,5.80
2019-03-15T11:05:57.132Z,4.43
2019-03-15T11:07:01.589Z,4.45
2019-03-15T11:08:06.087Z,4.15
2019-03-15T11:09:10.505Z,3.98
2019-03-15T11:10:14.960Z,4.58
2019-03-15T11:11:19.376Z,4.37
2019-03-15T11:12:23.876Z,4.37
2019-03-15T11:13:28.319Z,4.22
2019-03-15T11:14:32.705Z,4.10
2019-03-15T11:15:37.167Z,4.20
2019-03-15T11:16:41.666Z,4.03
2019-03-15T11:17:46.192Z,4.87
2019-03-15T11:18:50.678Z,4.70
2019-03-15T11:19:55.086Z,4.22
2019-03-15T11:20:59.539Z,3.85
2019-03-15T11:22:06.496Z,4.53
2019-03-15T11:23:12.698Z,4.80
2019-03-15T11:24:17.077Z,3.83
2019-03-15T11:25:21.464Z,4.08
2019-03-15T11:26:25.914Z,3.40
2019-03-15T11:27:30.372Z,3.87
2019-03-15T11:28:34.748Z,3.87
2019-03-15T11:29:39.140Z,4.17
2019-03-15T11:30:44.952Z,3.65
2019-03-15T11:31:49.326Z,3.60
2019-03-15T11:32:53.878Z,3.83
2019-03-15T11:33:58.274Z,3.92
2019-03-15T11:35:02.686Z,3.92
2019-03-15T11:36:07.144Z,3.25
2019-03-15T11:37:11.980Z,3.98
2019-03-15T11:38:16.423Z,4.67
2019-03-15T11:39:20.840Z,3.58
2019-03-15T11:40:25.266Z,3.67
2019-03-15T11:41:29.665Z,4.15
2019-03-15T11:42:34.141Z,3.95
2019-03-15T11:43:38.646Z,3.42
2019-03-15T11:44:43.341Z,3.62
2019-03-15T11:45:47.651Z,3.95
2019-03-15T11:46:52.276Z,3.47
2019-03-15T11:48:04.480Z,3.70
2019-03-15T11:49:02.880Z,3.85
2019-03-15T11:50:08.094Z,3.87
2019-03-15T11:51:15.785Z,4.05
2019-03-15T11:52:20.432Z,3.30
2019-03-15T11:53:24.786Z,4.03
2019-03-15T11:54:29.161Z,3.92
2019-03-15T11:55:33.539Z,3.87
2019-03-15T11:56:38.136Z,3.60
2019-03-15T11:57:42.657Z,3.58
2019-03-15T11:58:50.534Z,3.70
2019-03-15T11:59:55.088Z,3.45
2019-03-15T12:00:59.577Z,3.22
2019-03-15T12:02:04.643Z,3.90
2019-03-15T12:03:09.670Z,3.85
2019-03-15T12:04:14.164Z,2.95
2019-03-15T12:05:18.534Z,3.85
2019-03-15T12:06:24.156Z,3.17
2019-03-15T12:07:28.497Z,2.90
2019-03-15T12:08:32.901Z,2.80
2019-03-15T12:09:37.417Z,2.92
2019-03-15T12:10:42.577Z,3.00
2019-03-15T12:11:46.960Z,2.77
2019-03-15T12:12:51.366Z,2.50
2019-03-15T12:13:55.796Z,3.00
2019-03-15T12:15:00.461Z,3.12
2019-03-15T12:16:05.167Z,2.65
2019-03-15T12:17:10.006Z,3.37
2019-03-15T12:18:14.494Z,3.00
2019-03-15T12:19:18.899Z,2.70
2019-03-15T12:20:23.337Z,2.83
2019-03-15T12:21:27.739Z,2.47
2019-03-15T12:22:32.460Z,2.50
2019-03-15T12:23:36.996Z,2.47
2019-03-15T12:24:41.318Z,2.60
2019-03-15T12:25:45.816Z,3.27
2019-03-15T12:26:50.392Z,3.10
2019-03-15T12:27:54.718Z,2.85
2019-03-15T12:28:59.095Z,2.87
2019-03-15T12:30:03.765Z,2.95
2019-03-15T12:31:10.693Z,2.40
2019-03-15T12:32:15.737Z,1.92
2019-03-15T12:33:20.415Z,2.12
2019-03-15T12:34:27.531Z,2.62
2019-03-15T12:35:31.883Z,2.27
2019-03-15T12:36:36.455Z,1.87
2019-03-15T12:37:40.866Z,2.85
2019-03-15T12:38:45.365Z,2.10
2019-03-15T12:39:49.820Z,2.12
2019-03-15T12:40:54.288Z,2.70
2019-03-15T12:41:58.787Z,2.70
2019-03-15T12:43:03.207Z,3.15
2019-03-15T12:44:10.450Z,2.60
2019-03-15T12:45:13.980Z,2.42
2019-03-15T12:46:18.393Z,2.55
2019-03-15T12:47:22.848Z,2.20
2019-03-15T12:48:27.326Z,2.50
2019-03-15T12:49:31.705Z,2.33
2019-03-15T12:50:36.245Z,2.45
2019-03-15T12:51:40.748Z,2.65
2019-03-15T12:52:47.958Z,2.72
2019-03-15T12:53:51.512Z,2.52
2019-03-15T12:54:56.152Z,2.65
2019-03-15T12:56:00.657Z,2.35
2019-03-15T12:57:05.245Z,2.90
2019-03-15T12:58:09.665Z,2.30
2019-03-15T12:59:14.258Z,2.70
2019-03-15T13:00:18.711Z,2.05
2019-03-15T13:01:23.177Z,2.67
2019-03-15T13:02:27.693Z,2.45
2019-03-15T13:03:32.302Z,2.58
2019-03-15T13:04:36.746Z,2.52
2019-03-15T13:05:41.162Z,2.92
2019-03-15T13:06:45.648Z,2.30
2019-03-15T13:07:50.096Z,2.35
2019-03-15T13:08:54.572Z,3.05
2019-03-15T13:09:59.083Z,2.45
2019-03-15T13:11:03.752Z,2.30
2019-03-15T13:12:08.225Z,2.52
2019-03-15T13:13:12.825Z,2.47
2019-03-15T13:14:17.198Z,3.05
2019-03-15T13:15:21.628Z,3.00
2019-03-15T13:16:26.105Z,2.75
2019-03-15T13:17:30.530Z,2.90
2019-03-15T13:18:35.013Z,2.20
2019-03-15T13:19:39.562Z,2.75
2019-03-15T13:20:44.112Z,2.45
2019-03-15T13:21:48.524Z,2.80
2019-03-15T13:22:52.940Z,2.77
2019-03-15T13:23:57.521Z,2.17
2019-03-15T13:25:01.979Z,2.52
2019-03-15T13:26:06.845Z,2.95
2019-03-15T13:27:11.662Z,2.12
2019-03-15T13:28:16.206Z,2.58
2019-03-15T13:29:20.731Z,2.47
2019-03-15T13:30:27.340Z,2.55
2019-03-15T13:31:31.713Z,2.85
2019-03-15T13:32:36.317Z,2.85
2019-03-15T13:33:40.773Z,2.33
2019-03-15T13:34:45.141Z,2.08
2019-03-15T13:35:49.670Z,2.70
2019-03-15T13:36:54.158Z,2.22
2019-03-15T13:37:58.640Z,2.52
2019-03-15T13:39:03.332Z,2.62
2019-03-15T13:40:08.229Z,2.52
2019-03-15T13:41:12.809Z,2.50
2019-03-15T13:42:17.422Z,2.50
2019-03-15T13:43:21.818Z,2.33
2019-03-15T13:44:26.452Z,2.00
2019-03-15T13:45:30.961Z,2.85
2019-03-15T13:46:35.410Z,2.67
2019-03-15T13:47:40.086Z,2.20
2019-03-15T13:48:44.594Z,2.40
2019-03-15T13:49:49.097Z,2.45
2019-03-15T13:50:53.568Z,2.33
2019-03-15T13:51:58.128Z,3.55
2019-03-15T13:53:02.568Z,3.02
2019-03-15T13:54:07.253Z,2.60
2019-03-15T13:55:12.038Z,3.60
2019-03-15T13:56:16.505Z,3.20
2019-03-15T13:57:21.796Z,4.17
2019-03-15T13:58:26.328Z,2.65
2019-03-15T13:59:30.867Z,2.83
2019-03-15T14:00:35.267Z,2.83
2019-03-15T14:01:39.775Z,2.60
2019-03-15T14:02:44.317Z,2.47
2019-03-15T14:03:48.801Z,2.10
2019-03-15T14:04:53.222Z,2.58
2019-03-15T14:05:57.592Z,2.45
2019-03-15T14:07:02.095Z,2.35
2019-03-15T14:08:11.686Z,2.30
2019-03-15T14:09:13.081Z,2.40
2019-03-15T14:10:17.582Z,2.42
2019-03-15T14:11:22.039Z,2.22
2019-03-15T14:12:26.513Z,2.40
2019-03-15T14:13:30.944Z,2.27
2019-03-15T14:14:35.483Z,2.17
2019-03-15T14:15:39.906Z,2.70
2019-03-15T14:16:44.460Z,2.58
2019-03-15T14:17:49.011Z,2.42
2019-03-15T14:18:53.532Z,2.40
2019-03-15T14:19:57.972Z,2.10
2019-03-15T14:21:02.666Z,2.25